createdAt,value
2023-04-28T06:15:36.092Z,988.00
2023-04-28T06:16:34.415Z,796.00
2023-04-28T06:17:34.406Z,684.00
2023-04-28T06:18:34.380Z,668.00
2023-04-28T06:19:34.294Z,704.00
2023-04-28T06:20:34.356Z,804.00
2023-04-28T06:21:34.268Z,864.00
2023-04-28T06:22:34.274Z,988.00
2023-04-28T06:23:34.244Z,1124.00
2023-04-28T06:24:34.337Z,1016.00
2023-04-28T06:25:34.278Z,964.00
2023-04-28T06:26:34.660Z,908.00
2023-04-28T06:27:34.656Z,836.00
2023-04-28T06:28:35.582Z,744.00
2023-04-28T06:29:34.489Z,692.00
2023-04-28T06:30:34.211Z,636.00
2023-04-28T06:31:34.314Z,648.00
2023-04-28T06:32:34.217Z,680.00
2023-04-28T06:33:34.224Z,772.00
2023-04-28T06:34:34.277Z,904.00
2023-04-28T06:35:34.149Z,992.00
2023-04-28T06:36:34.202Z,1064.00
2023-04-28T06:37:34.142Z,1128.00
2023-04-28T06:38:34.119Z,1084.00
2023-04-28T06:39:34.096Z,1048.00
2023-04-28T06:40:34.329Z,912.00
2023-04-28T06:41:34.099Z,936.00
2023-04-28T06:42:34.068Z,1008.00
2023-04-28T06:43:34.106Z,1108.00
2023-04-28T06:44:36.339Z,1208.00
2023-04-28T06:45:34.079Z,1280.00
2023-04-28T06:46:34.050Z,1328.00
2023-04-28T06:47:34.041Z,1336.00
2023-04-28T06:48:34.008Z,1356.00
2023-04-28T06:49:34.007Z,1504.00
2023-04-28T06:50:34.025Z,1768.00
2023-04-28T06:51:33.951Z,1748.00
2023-04-28T06:52:39.255Z,1536.00
2023-04-28T06:53:34.903Z,1340.00
2023-04-28T06:54:33.913Z,1192.00
2023-04-28T06:55:33.891Z,1192.00
2023-04-28T06:56:33.895Z,1204.00
2023-04-28T06:57:34.113Z,1176.00
2023-04-28T06:58:33.904Z,1220.00
2023-04-28T06:59:33.929Z,1268.00
2023-04-28T07:00:33.932Z,1404.00
2023-04-28T07:01:33.827Z,1432.00
2023-04-28T07:02:33.968Z,1484.00
2023-04-28T07:03:33.969Z,1640.00
2023-04-28T07:04:33.815Z,1624.00
2023-04-28T07:05:33.823Z,1588.00
2023-04-28T07:06:33.835Z,1520.00
2023-04-28T07:07:33.948Z,1392.00
2023-04-28T07:08:33.809Z,1384.00
2023-04-28T07:09:33.760Z,1396.00
2023-04-28T07:10:33.764Z,1420.00
2023-04-28T07:11:33.718Z,1628.00
2023-04-28T07:12:33.719Z,1732.00
2023-04-28T07:13:33.693Z,1728.00
2023-04-28T07:14:33.701Z,1664.00
2023-04-28T07:15:33.794Z,1692.00
2023-04-28T07:16:33.782Z,1572.00
2023-04-28T07:17:33.727Z,1484.00
2023-04-28T07:18:33.770Z,1552.00
2023-04-28T07:19:33.625Z,1532.00
2023-04-28T07:20:33.646Z,1560.00
2023-04-28T07:21:33.601Z,1672.00
2023-04-28T07:22:33.635Z,1876.00
2023-04-28T07:23:33.647Z,2044.00
2023-04-28T07:24:33.698Z,2128.00
2023-04-28T07:25:33.559Z,1960.00
2023-04-28T07:26:33.575Z,1820.00
2023-04-28T07:27:33.533Z,1776.00
2023-04-28T07:28:33.657Z,1604.00
2023-04-28T07:29:33.668Z,1616.00
2023-04-28T07:30:33.501Z,1624.00
2023-04-28T07:31:33.503Z,1712.00
2023-04-28T07:32:33.505Z,1636.00
2023-04-28T07:33:33.445Z,1592.00
2023-04-28T07:34:33.454Z,1700.00
2023-04-28T07:35:33.440Z,1652.00
2023-04-28T07:36:33.481Z,1588.00
2023-04-28T07:37:33.431Z,1404.00
2023-04-28T07:38:33.685Z,1212.00
2023-04-28T07:39:33.406Z,1260.00
2023-04-28T07:40:33.421Z,1412.00
2023-04-28T07:41:33.377Z,1632.00
2023-04-28T07:42:33.388Z,1728.00
2023-04-28T07:43:33.367Z,1772.00
2023-04-28T07:44:33.391Z,1896.00
2023-04-28T07:45:33.410Z,1912.00
2023-04-28T07:46:33.489Z,1780.00
2023-04-28T07:47:33.306Z,1552.00
2023-04-28T07:48:33.563Z,1680.00
2023-04-28T07:49:33.681Z,1980.00
2023-04-28T07:50:33.288Z,2188.00
2023-04-28T07:51:33.256Z,2672.00
2023-04-28T07:52:33.293Z,3548.00
2023-04-28T07:53:33.211Z,3548.00
2023-04-28T07:54:34.146Z,2824.00
2023-04-28T07:55:33.204Z,2660.00
2023-04-28T07:56:33.206Z,2648.00
2023-04-28T07:57:33.233Z,2800.00
2023-04-28T07:58:33.267Z,3388.00
2023-04-28T07:59:33.154Z,3792.00
2023-04-28T08:00:33.152Z,4832.00
2023-04-28T08:01:33.149Z,5228.00
2023-04-28T08:02:33.232Z,4704.00
2023-04-28T08:03:33.343Z,4872.00
2023-04-28T08:04:33.216Z,5940.00
2023-04-28T08:05:33.341Z,5264.00
2023-04-28T08:06:33.125Z,4796.00
2023-04-28T08:07:33.208Z,4296.00
2023-04-28T08:08:33.245Z,3592.00
2023-04-28T08:09:33.232Z,3176.00
2023-04-28T08:10:33.039Z,2836.00
2023-04-28T08:11:33.009Z,2664.00
2023-04-28T08:12:33.075Z,2368.00
2023-04-28T08:13:32.978Z,1948.00
2023-04-28T08:14:33.003Z,1648.00
2023-04-28T08:15:32.978Z,1768.00
2023-04-28T08:16:32.989Z,2208.00
2023-04-28T08:17:32.993Z,2788.00
2023-04-28T08:18:32.984Z,3276.00
2023-04-28T08:19:32.954Z,3724.00
2023-04-28T08:20:32.919Z,4036.00
2023-04-28T08:21:33.005Z,3312.00
2023-04-28T08:22:32.931Z,2756.00
2023-04-28T08:23:33.064Z,2784.00
2023-04-28T08:24:32.894Z,3360.00
2023-04-28T08:25:32.840Z,4228.00
2023-04-28T08:26:32.919Z,4692.00
2023-04-28T08:27:32.832Z,4468.00
2023-04-28T08:28:32.843Z,4148.00
2023-04-28T08:29:33.242Z,3896.00
2023-04-28T08:30:33.182Z,3824.00
2023-04-28T08:31:32.831Z,3640.00
2023-04-28T08:32:32.830Z,3608.00
2023-04-28T08:33:32.766Z,3284.00
2023-04-28T08:34:32.755Z,2976.00
2023-04-28T08:35:33.188Z,2748.00
2023-04-28T08:36:32.736Z,2816.00
2023-04-28T08:37:32.720Z,3020.00
2023-04-28T08:38:32.723Z,2916.00
2023-04-28T08:39:32.668Z,3240.00
2023-04-28T08:40:32.732Z,3728.00
2023-04-28T08:41:32.675Z,4172.00
2023-04-28T08:42:32.693Z,4460.00
2023-04-28T08:43:36.711Z,3900.00
2023-04-28T08:44:32.650Z,3460.00
2023-04-28T08:45:32.631Z,3916.00
2023-04-28T08:46:32.667Z,4236.00
2023-04-28T08:47:32.618Z,5032.00
2023-04-28T08:48:32.598Z,4772.00
2023-04-28T08:49:32.576Z,4076.00
2023-04-28T08:50:33.129Z,3852.00
2023-04-28T08:51:32.576Z,3636.00
2023-04-28T08:52:32.529Z,3556.00
2023-04-28T08:53:33.282Z,3384.00
2023-04-28T08:54:32.927Z,3512.00
2023-04-28T08:55:32.547Z,4180.00
2023-04-28T08:56:32.490Z,4964.00
2023-04-28T08:57:32.541Z,5320.00
2023-04-28T08:58:32.484Z,4920.00
2023-04-28T08:59:32.515Z,4616.00
2023-04-28T09:00:32.433Z,4496.00
2023-04-28T09:01:32.716Z,4340.00
2023-04-28T09:02:32.574Z,3936.00
2023-04-28T09:03:32.537Z,3716.00
2023-04-28T09:04:32.497Z,3708.00
2023-04-28T09:05:32.488Z,3540.00
2023-04-28T09:06:32.401Z,3332.00
2023-04-28T09:07:32.385Z,3576.00
2023-04-28T09:08:32.399Z,4040.00
2023-04-28T09:09:35.553Z,4332.00
2023-04-28T09:10:33.144Z,4452.00
2023-04-28T09:11:32.524Z,4632.00
2023-04-28T09:12:32.327Z,4160.00
2023-04-28T09:13:32.346Z,4300.00
2023-04-28T09:14:32.272Z,4264.00
2023-04-28T09:15:33.824Z,3936.00
2023-04-28T09:16:32.280Z,3828.00
2023-04-28T09:17:32.309Z,3816.00
2023-04-28T09:18:32.256Z,4224.00
2023-04-28T09:19:32.253Z,4656.00
2023-04-28T09:20:32.244Z,4792.00
2023-04-28T09:21:32.227Z,4956.00
2023-04-28T09:22:32.267Z,4540.00
2023-04-28T09:23:32.208Z,5404.00
2023-04-28T09:24:32.236Z,5460.00
2023-04-28T09:25:32.335Z,4616.00
2023-04-28T09:26:32.137Z,3856.00
2023-04-28T09:27:32.207Z,3784.00
2023-04-28T09:28:32.149Z,3684.00
2023-04-28T09:29:32.172Z,3328.00
2023-04-28T09:30:32.650Z,3676.00
2023-04-28T09:31:32.194Z,4472.00
2023-04-28T09:32:32.219Z,5048.00
2023-04-28T09:33:32.128Z,5464.00
2023-04-28T09:34:32.065Z,6164.00
2023-04-28T09:35:32.089Z,7136.00
2023-04-28T09:36:32.046Z,7464.00
2023-04-28T09:37:32.054Z,7128.00
2023-04-28T09:38:32.035Z,6752.00
2023-04-28T09:39:32.114Z,6448.00
2023-04-28T09:40:31.993Z,6124.00
2023-04-28T09:41:32.034Z,5656.00
2023-04-28T09:42:31.971Z,4868.00
2023-04-28T09:43:31.995Z,4728.00
2023-04-28T09:44:32.273Z,4864.00
2023-04-28T09:45:32.000Z,5452.00
2023-04-28T09:46:32.180Z,6032.00
2023-04-28T09:47:32.319Z,6360.00
2023-04-28T09:48:32.179Z,7148.00
2023-04-28T09:49:31.963Z,8248.00
2023-04-28T09:50:31.897Z,8972.00
2023-04-28T09:51:31.993Z,9572.00
2023-04-28T09:52:31.991Z,9736.00
2023-04-28T09:53:31.925Z,8988.00
2023-04-28T09:54:32.107Z,8500.00
2023-04-28T09:55:31.883Z,9288.00
2023-04-28T09:56:32.016Z,9580.00
2023-04-28T09:57:32.269Z,9436.00
2023-04-28T09:58:31.926Z,8944.00
2023-04-28T09:59:32.245Z,8272.00
2023-04-28T10:00:32.392Z,7536.00
2023-04-28T10:01:32.087Z,6496.00
2023-04-28T10:02:43.183Z,5808.00
2023-04-28T10:03:33.035Z,6384.00
2023-04-28T10:04:32.335Z,7488.00
2023-04-28T10:05:32.191Z,7716.00
2023-04-28T10:06:31.696Z,7520.00
2023-04-28T10:07:31.721Z,5948.00
2023-04-28T10:08:31.705Z,4872.00
2023-04-28T10:09:31.700Z,4440.00
2023-04-28T10:10:31.672Z,3756.00
2023-04-28T10:11:31.922Z,3644.00
2023-04-28T10:12:31.771Z,3812.00
2023-04-28T10:13:31.647Z,4272.00
2023-04-28T10:14:31.639Z,4080.00
2023-04-28T10:15:31.767Z,3856.00
2023-04-28T10:16:31.650Z,4448.00
2023-04-28T10:17:31.664Z,5272.00
2023-04-28T10:18:31.608Z,4744.00
2023-04-28T10:19:31.644Z,3560.00
2023-04-28T10:20:31.590Z,3608.00
2023-04-28T10:21:31.550Z,3920.00
2023-04-28T10:22:31.529Z,4768.00
2023-04-28T10:23:31.568Z,6596.00
2023-04-28T10:24:31.664Z,7320.00
2023-04-28T10:25:31.533Z,7112.00
2023-04-28T10:26:31.518Z,5692.00
2023-04-28T10:27:31.515Z,3940.00
2023-04-28T10:28:31.473Z,3076.00
2023-04-28T10:29:31.467Z,3872.00
2023-04-28T10:30:31.533Z,4868.00
2023-04-28T10:31:31.576Z,5700.00
2023-04-28T10:32:31.669Z,6316.00
2023-04-28T10:33:31.769Z,6896.00
2023-04-28T10:34:31.815Z,8268.00
2023-04-28T10:35:31.402Z,8352.00
2023-04-28T10:36:36.367Z,7716.00
2023-04-28T10:37:31.417Z,7396.00
2023-04-28T10:38:31.364Z,6816.00
2023-04-28T10:39:31.356Z,6248.00
2023-04-28T10:40:31.325Z,5080.00
2023-04-28T10:41:31.371Z,4588.00
2023-04-28T10:42:31.310Z,4632.00
2023-04-28T10:43:31.334Z,4780.00
2023-04-28T10:44:31.970Z,4956.00
2023-04-28T10:45:31.807Z,5332.00
2023-04-28T10:46:31.265Z,5744.00
2023-04-28T10:47:31.332Z,6668.00
2023-04-28T10:48:31.240Z,6836.00
2023-04-28T10:49:31.239Z,7504.00
2023-04-28T10:50:39.048Z,7384.00
2023-04-28T10:51:32.252Z,6332.00
2023-04-28T10:52:31.657Z,6104.00
2023-04-28T10:53:31.210Z,6228.00
2023-04-28T10:54:31.263Z,6060.00
2023-04-28T10:55:31.217Z,5336.00
2023-04-28T10:56:31.191Z,4708.00
2023-04-28T10:57:31.215Z,4592.00
2023-04-28T10:58:31.112Z,4636.00
2023-04-28T10:59:31.151Z,4212.00
2023-04-28T11:00:31.107Z,4184.00
2023-04-28T11:01:31.145Z,3508.00
2023-04-28T11:02:31.251Z,2356.00
2023-04-28T11:03:32.007Z,2196.00
2023-04-28T11:04:31.234Z,2704.00
2023-04-28T11:05:31.051Z,3824.00
2023-04-28T11:06:31.072Z,5580.00
2023-04-28T11:07:31.050Z,6012.00
2023-04-28T11:08:30.987Z,5732.00
2023-04-28T11:09:31.017Z,4924.00
2023-04-28T11:10:30.968Z,6728.00
2023-04-28T11:11:30.989Z,9512.00
2023-04-28T11:12:30.963Z,7112.00
2023-04-28T11:13:31.232Z,6448.00
2023-04-28T11:14:32.478Z,6832.00
2023-04-28T11:15:30.949Z,9792.00
2023-04-28T11:16:30.955Z,9596.00
2023-04-28T11:17:30.964Z,10476.00
2023-04-28T11:18:30.902Z,9440.00
2023-04-28T11:19:30.913Z,7468.00
2023-04-28T11:20:30.884Z,5312.00
2023-04-28T11:21:30.906Z,4460.00
2023-04-28T11:22:30.930Z,4028.00
2023-04-28T11:23:30.896Z,3796.00
2023-04-28T11:24:30.831Z,3572.00
2023-04-28T11:25:30.862Z,2896.00
2023-04-28T11:26:30.786Z,2604.00
2023-04-28T11:27:30.820Z,2580.00
2023-04-28T11:28:30.823Z,3016.00
2023-04-28T11:29:30.812Z,2996.00
2023-04-28T11:30:30.748Z,3268.00
2023-04-28T11:31:30.789Z,4020.00
2023-04-28T11:32:30.839Z,6048.00
2023-04-28T11:33:31.071Z,7064.00
2023-04-28T11:34:30.753Z,6868.00
2023-04-28T11:35:30.800Z,5456.00
2023-04-28T11:36:30.702Z,4688.00
2023-04-28T11:37:30.727Z,3712.00
2023-04-28T11:38:30.654Z,3000.00
2023-04-28T11:39:30.675Z,2892.00
2023-04-28T11:40:30.630Z,3608.00
2023-04-28T11:41:30.670Z,4220.00
2023-04-28T11:42:30.608Z,5320.00
2023-04-28T11:43:43.691Z,6520.00
2023-04-28T11:44:31.650Z,6420.00
2023-04-28T11:45:30.655Z,5380.00
2023-04-28T11:46:30.858Z,5128.00
2023-04-28T11:47:30.915Z,6008.00
2023-04-28T11:48:30.586Z,6260.00
2023-04-28T11:49:30.842Z,6904.00
2023-04-28T11:50:30.552Z,6180.00
2023-04-28T11:51:30.535Z,4380.00
2023-04-28T11:52:30.495Z,5788.00
2023-04-28T11:53:30.567Z,5776.00
2023-04-28T11:54:30.481Z,5300.00
2023-04-28T11:55:30.516Z,4840.00
2023-04-28T11:56:30.500Z,3940.00
2023-04-28T11:57:30.465Z,3724.00
2023-04-28T11:58:30.448Z,4256.00
2023-04-28T11:59:30.447Z,4216.00
2023-04-28T12:00:30.456Z,4152.00
2023-04-28T12:01:30.418Z,3908.00
2023-04-28T12:02:30.703Z,3344.00
2023-04-28T12:03:30.570Z,3316.00
2023-04-28T12:04:30.369Z,3140.00
2023-04-28T12:05:30.432Z,3892.00
2023-04-28T12:06:30.404Z,3760.00
2023-04-28T12:07:30.354Z,3792.00
2023-04-28T12:08:30.313Z,3168.00
2023-04-28T12:09:30.337Z,3292.00
2023-04-28T12:10:30.300Z,2824.00
2023-04-28T12:11:30.314Z,3584.00
2023-04-28T12:12:45.339Z,3944.00
2023-04-28T12:13:31.309Z,4208.00
2023-04-28T12:14:30.519Z,3444.00
2023-04-28T12:15:31.018Z,3644.00
2023-04-28T12:16:31.928Z,4088.00
2023-04-28T12:17:30.680Z,4392.00
2023-04-28T12:18:30.198Z,4620.00
2023-04-28T12:19:30.248Z,4856.00
2023-04-28T12:20:30.193Z,4852.00
2023-04-28T12:21:30.211Z,3396.00
2023-04-28T12:22:30.186Z,2424.00
2023-04-28T12:23:30.190Z,3148.00
2023-04-28T12:24:30.156Z,3380.00
2023-04-28T12:25:30.232Z,3512.00
2023-04-28T12:26:30.120Z,4668.00
2023-04-28T12:27:30.121Z,4548.00
2023-04-28T12:28:30.115Z,4520.00
2023-04-28T12:29:30.114Z,3412.00
2023-04-28T12:30:30.133Z,2824.00
2023-04-28T12:31:30.195Z,2804.00
2023-04-28T12:32:30.088Z,2592.00
2023-04-28T12:33:30.102Z,2640.00
2023-04-28T12:34:30.355Z,3500.00
2023-04-28T12:35:30.213Z,3116.00
2023-04-28T12:36:29.997Z,4452.00
2023-04-28T12:37:30.067Z,4472.00
2023-04-28T12:38:29.975Z,4056.00
2023-04-28T12:39:29.999Z,4188.00
2023-04-28T12:40:29.983Z,5936.00
2023-04-28T12:41:29.989Z,8028.00
2023-04-28T12:42:29.956Z,8580.00
2023-04-28T12:43:29.943Z,9048.00
2023-04-28T12:44:29.904Z,8472.00
2023-04-28T12:45:29.950Z,7468.00
2023-04-28T12:46:29.923Z,6812.00
2023-04-28T12:47:29.931Z,7196.00
2023-04-28T12:48:29.883Z,6824.00
2023-04-28T12:49:29.872Z,6552.00
2023-04-28T12:50:29.851Z,6704.00
2023-04-28T12:51:29.882Z,8752.00
2023-04-28T12:52:29.822Z,10848.00
2023-04-28T12:53:29.844Z,10860.00
2023-04-28T12:54:30.311Z,8272.00
2023-04-28T12:55:29.892Z,6972.00
2023-04-28T12:56:30.099Z,8892.00
2023-04-28T12:57:29.825Z,9264.00
2023-04-28T12:58:29.784Z,8704.00
2023-04-28T12:59:29.835Z,9688.00
2023-04-28T13:00:29.732Z,8268.00
2023-04-28T13:01:29.833Z,10144.00
2023-04-28T13:02:29.848Z,8884.00
2023-04-28T13:03:29.898Z,9712.00
2023-04-28T13:04:29.955Z,8120.00
2023-04-28T13:05:29.693Z,10032.00
2023-04-28T13:06:29.662Z,8972.00
2023-04-28T13:07:29.706Z,8828.00
2023-04-28T13:08:29.665Z,8412.00
2023-04-28T13:09:29.659Z,7484.00
2023-04-28T13:10:29.702Z,7532.00
2023-04-28T13:11:29.623Z,6296.00
2023-04-28T13:12:29.650Z,7192.00
2023-04-28T13:13:29.598Z,6140.00
2023-04-28T13:14:29.600Z,6084.00
2023-04-28T13:15:30.046Z,5452.00
2023-04-28T13:16:30.441Z,4888.00
2023-04-28T13:17:29.613Z,4576.00
2023-04-28T13:18:29.566Z,5720.00
2023-04-28T13:19:29.546Z,6708.00
2023-04-28T13:20:29.516Z,5708.00
2023-04-28T13:21:29.504Z,6368.00
2023-04-28T13:22:29.543Z,5840.00
2023-04-28T13:23:29.495Z,5644.00
2023-04-28T13:24:29.520Z,6848.00
2023-04-28T13:25:29.491Z,6512.00
2023-04-28T13:26:29.551Z,6188.00
2023-04-28T13:27:29.788Z,7400.00
2023-04-28T13:28:29.460Z,6732.00
2023-04-28T13:29:29.436Z,6332.00
2023-04-28T13:30:29.446Z,7744.00
2023-04-28T13:31:29.427Z,6668.00
2023-04-28T13:32:29.410Z,6952.00
2023-04-28T13:33:29.441Z,7748.00
2023-04-28T13:34:29.435Z,6680.00
2023-04-28T13:35:29.492Z,6132.00
2023-04-28T13:36:29.476Z,6556.00
2023-04-28T13:37:29.379Z,6668.00
2023-04-28T13:38:29.331Z,6608.00
2023-04-28T13:39:29.599Z,6804.00
2023-04-28T13:40:29.369Z,7492.00
2023-04-28T13:41:29.260Z,8052.00
2023-04-28T13:42:29.280Z,7724.00
2023-04-28T13:43:29.308Z,7616.00
2023-04-28T13:44:29.269Z,7008.00
2023-04-28T13:45:29.644Z,7072.00
2023-04-28T13:46:29.386Z,7388.00
2023-04-28T13:47:29.266Z,9272.00
2023-04-28T13:48:29.373Z,9568.00
2023-04-28T13:49:29.174Z,9140.00
2023-04-28T13:50:29.211Z,8412.00
2023-04-28T13:51:29.197Z,8188.00
2023-04-28T13:52:29.175Z,8308.00
2023-04-28T13:53:29.304Z,6808.00
2023-04-28T13:54:29.212Z,6280.00
2023-04-28T13:55:29.185Z,6624.00
2023-04-28T13:56:29.316Z,6020.00
2023-04-28T13:57:29.102Z,4980.00
2023-04-28T13:58:29.212Z,5380.00
2023-04-28T13:59:29.104Z,6268.00
2023-04-28T14:00:29.164Z,6384.00
2023-04-28T14:01:29.104Z,3676.00
2023-04-28T14:02:29.143Z,3288.00
2023-04-28T14:03:29.170Z,3980.00
2023-04-28T14:04:29.262Z,4328.00
2023-04-28T14:05:31.628Z,7544.00
2023-04-28T14:06:30.272Z,4852.00
2023-04-28T14:07:28.981Z,6500.00
2023-04-28T14:08:28.962Z,4728.00
2023-04-28T14:09:28.942Z,6448.00
2023-04-28T14:10:28.952Z,8000.00
2023-04-28T14:11:28.926Z,6864.00
2023-04-28T14:12:28.939Z,3760.00
2023-04-28T14:13:28.965Z,3824.00
2023-04-28T14:14:28.944Z,3900.00
2023-04-28T14:15:28.873Z,4668.00
2023-04-28T14:16:28.952Z,4084.00
2023-04-28T14:17:29.091Z,4776.00
2023-04-28T14:18:28.918Z,4524.00
2023-04-28T14:19:28.835Z,4100.00
2023-04-28T14:20:28.844Z,4284.00
2023-04-28T14:21:28.862Z,5168.00
2023-04-28T14:22:28.904Z,5248.00
2023-04-28T14:23:28.820Z,6280.00
2023-04-28T14:24:28.830Z,8120.00
2023-04-28T14:25:28.784Z,7020.00
2023-04-28T14:26:28.853Z,5176.00
2023-04-28T14:27:28.764Z,5252.00
2023-04-28T14:28:28.784Z,3968.00
2023-04-28T14:29:28.757Z,3532.00
2023-04-28T14:30:28.730Z,4140.00
2023-04-28T14:31:28.744Z,4184.00
2023-04-28T14:32:28.817Z,3664.00
2023-04-28T14:33:28.702Z,3328.00
2023-04-28T14:34:28.711Z,5344.00
2023-04-28T14:35:28.683Z,8884.00
2023-04-28T14:36:28.859Z,7468.00
2023-04-28T14:37:29.232Z,7004.00
2023-04-28T14:38:28.938Z,4496.00
2023-04-28T14:39:28.782Z,4384.00
2023-04-28T14:40:28.717Z,3532.00
2023-04-28T14:41:28.589Z,3708.00
2023-04-28T14:42:28.586Z,3732.00
2023-04-28T14:43:28.626Z,4232.00
2023-04-28T14:44:28.626Z,5400.00
2023-04-28T14:45:28.560Z,7080.00
2023-04-28T14:46:28.640Z,6124.00
2023-04-28T14:47:29.366Z,4012.00
2023-04-28T14:48:28.547Z,4456.00
2023-04-28T14:49:28.736Z,6124.00
2023-04-28T14:50:29.055Z,5616.00
2023-04-28T14:51:28.547Z,3680.00
2023-04-28T14:52:28.535Z,3328.00
2023-04-28T14:53:28.881Z,3068.00
2023-04-28T14:54:28.822Z,2680.00
2023-04-28T14:55:28.681Z,2232.00
2023-04-28T14:56:28.642Z,1992.00
2023-04-28T14:57:28.688Z,2048.00
2023-04-28T14:58:28.608Z,2796.00
2023-04-28T14:59:28.534Z,3564.00
2023-04-28T15:00:28.810Z,3308.00
2023-04-28T15:01:28.635Z,2904.00
2023-04-28T15:02:28.760Z,3244.00
2023-04-28T15:03:29.099Z,3328.00
2023-04-28T15:04:28.484Z,2360.00
2023-04-28T15:05:28.332Z,2196.00
2023-04-28T15:06:28.363Z,2168.00
2023-04-28T15:07:28.650Z,2776.00
2023-04-28T15:08:29.937Z,3152.00
2023-04-28T15:09:28.273Z,3356.00
2023-04-28T15:10:28.293Z,2864.00
2023-04-28T15:11:28.295Z,2480.00
2023-04-28T15:12:28.257Z,2748.00
2023-04-28T15:13:28.242Z,3404.00
2023-04-28T15:14:28.230Z,3952.00
2023-04-28T15:15:28.231Z,3460.00
2023-04-28T15:16:28.294Z,4172.00
2023-04-28T15:17:28.184Z,4448.00
2023-04-28T15:18:28.659Z,3912.00
2023-04-28T15:19:29.727Z,4356.00
2023-04-28T15:20:29.605Z,3508.00
2023-04-28T15:21:28.150Z,2740.00
2023-04-28T15:22:28.182Z,3360.00
2023-04-28T15:23:28.113Z,3632.00
2023-04-28T15:24:28.117Z,3080.00
2023-04-28T15:25:28.131Z,2764.00
2023-04-28T15:26:29.882Z,3284.00
2023-04-28T15:27:28.075Z,3916.00
2023-04-28T15:28:28.136Z,3636.00
2023-04-28T15:29:28.044Z,3824.00
2023-04-28T15:30:28.104Z,4768.00
2023-04-28T15:31:28.047Z,4372.00
2023-04-28T15:32:30.340Z,4068.00
2023-04-28T15:33:28.000Z,5664.00
2023-04-28T15:34:28.079Z,5204.00
2023-04-28T15:35:28.018Z,5692.00
2023-04-28T15:36:28.030Z,5764.00
2023-04-28T15:37:27.954Z,3780.00
2023-04-28T15:38:29.745Z,3256.00
2023-04-28T15:39:28.296Z,3448.00
2023-04-28T15:40:28.008Z,4068.00
2023-04-28T15:41:27.991Z,5112.00
2023-04-28T15:42:27.973Z,5940.00
2023-04-28T15:43:27.925Z,5140.00
2023-04-28T15:44:30.412Z,4820.00
2023-04-28T15:45:27.894Z,4840.00
2023-04-28T15:46:28.023Z,4748.00
2023-04-28T15:47:28.116Z,5232.00
2023-04-28T15:48:27.984Z,5196.00
2023-04-28T15:49:27.969Z,4820.00
2023-04-28T15:50:27.839Z,4636.00
2023-04-28T15:51:27.976Z,4372.00
2023-04-28T15:52:27.918Z,3868.00
2023-04-28T15:53:27.876Z,3464.00
2023-04-28T15:54:27.866Z,3748.00
2023-04-28T15:55:27.788Z,3076.00
2023-04-28T15:56:27.798Z,3148.00
2023-04-28T15:57:27.746Z,3368.00
2023-04-28T15:58:27.769Z,3280.00
2023-04-28T15:59:28.513Z,3832.00
2023-04-28T16:00:27.719Z,4440.00
2023-04-28T16:01:27.695Z,3872.00
2023-04-28T16:02:27.893Z,3784.00
2023-04-28T16:03:27.854Z,3672.00
2023-04-28T16:04:27.849Z,4008.00
2023-04-28T16:05:27.683Z,4024.00
2023-04-28T16:06:27.676Z,3964.00
2023-04-28T16:07:27.619Z,3960.00
2023-04-28T16:08:27.755Z,3956.00
2023-04-28T16:09:27.626Z,3420.00
2023-04-28T16:10:27.610Z,3592.00
2023-04-28T16:11:27.598Z,4180.00
2023-04-28T16:12:27.625Z,3928.00
2023-04-28T16:13:27.588Z,4196.00
2023-04-28T16:14:27.589Z,4204.00
2023-04-28T16:15:27.561Z,3992.00
2023-04-28T16:16:27.546Z,3780.00
2023-04-28T16:17:27.531Z,3628.00
2023-04-28T16:18:27.577Z,3460.00
2023-04-28T16:19:27.515Z,3308.00
2023-04-28T16:20:27.530Z,3280.00
2023-04-28T16:21:27.489Z,3336.00
2023-04-28T16:22:27.476Z,3288.00
2023-04-28T16:23:27.448Z,3056.00
2023-04-28T16:24:27.506Z,2744.00
2023-04-28T16:25:27.429Z,2524.00
2023-04-28T16:26:27.418Z,2372.00
2023-04-28T16:27:27.465Z,2708.00
2023-04-28T16:28:27.999Z,3160.00
2023-04-28T16:29:27.370Z,2948.00
2023-04-28T16:30:27.390Z,2844.00
2023-04-28T16:31:27.455Z,2904.00
2023-04-28T16:32:28.039Z,3140.00
2023-04-28T16:33:27.343Z,2692.00
2023-04-28T16:34:27.340Z,2592.00
2023-04-28T16:35:27.310Z,3236.00
2023-04-28T16:36:27.321Z,3076.00
2023-04-28T16:37:27.280Z,1956.00
2023-04-28T16:38:27.294Z,1836.00
2023-04-28T16:39:27.285Z,1760.00
2023-04-28T16:40:27.381Z,1748.00
2023-04-28T16:41:27.366Z,1708.00
2023-04-28T16:42:27.249Z,1712.00
2023-04-28T16:43:27.199Z,1556.00
2023-04-28T16:44:27.305Z,1508.00
2023-04-28T16:45:27.204Z,1428.00
2023-04-28T16:46:27.471Z,1632.00
2023-04-28T16:47:27.202Z,2016.00
2023-04-28T16:48:27.174Z,1988.00
2023-04-28T16:49:27.208Z,1736.00
2023-04-28T16:50:27.171Z,1828.00
2023-04-28T16:51:27.134Z,2088.00
2023-04-28T16:52:27.130Z,2408.00
2023-04-28T16:53:27.122Z,3328.00
2023-04-28T16:54:27.105Z,5584.00
2023-04-28T16:55:27.077Z,4840.00
2023-04-28T16:56:27.111Z,3924.00
2023-04-28T16:57:27.123Z,3324.00
2023-04-28T16:58:27.069Z,2296.00
2023-04-28T16:59:27.252Z,1892.00
2023-04-28T17:00:27.121Z,1584.00
2023-04-28T17:01:27.026Z,1332.00
2023-04-28T17:02:27.165Z,1392.00
2023-04-28T17:03:27.068Z,1512.00
2023-04-28T17:04:27.282Z,1692.00
2023-04-28T17:05:27.032Z,1652.00
2023-04-28T17:06:26.982Z,1160.00
2023-04-28T17:07:26.958Z,732.00
2023-04-28T17:08:27.005Z,708.00
2023-04-28T17:09:26.923Z,752.00
2023-04-28T17:10:26.926Z,768.00
2023-04-28T17:11:26.932Z,920.00
2023-04-28T17:12:26.920Z,1264.00
2023-04-28T17:13:26.876Z,1976.00
2023-04-28T17:14:26.915Z,3304.00
2023-04-28T17:15:26.831Z,4536.00
2023-04-28T17:16:26.880Z,5156.00
2023-04-28T17:17:26.837Z,4876.00
2023-04-28T17:18:26.831Z,4736.00
2023-04-28T17:19:26.792Z,4440.00
2023-04-28T17:20:26.803Z,2888.00
2023-04-28T17:21:27.794Z,2368.00
2023-04-28T17:22:26.790Z,2612.00
2023-04-28T17:23:26.755Z,2916.00
2023-04-28T17:24:26.758Z,2640.00
2023-04-28T17:25:26.764Z,1536.00
2023-04-28T17:26:26.707Z,1692.00
2023-04-28T17:27:26.720Z,2648.00
2023-04-28T17:28:26.731Z,2972.00
2023-04-28T17:29:26.783Z,1840.00
2023-04-28T17:30:26.687Z,1968.00
2023-04-28T17:31:26.729Z,1600.00
2023-04-28T17:32:26.664Z,1476.00
2023-04-28T17:33:26.652Z,1616.00
2023-04-28T17:34:26.623Z,2288.00
2023-04-28T17:35:26.653Z,2884.00
2023-04-28T17:36:26.592Z,1684.00
2023-04-28T17:37:26.651Z,1440.00
2023-04-28T17:38:26.603Z,1400.00
2023-04-28T17:39:26.616Z,1360.00
2023-04-28T17:40:26.555Z,1372.00
2023-04-28T17:41:26.665Z,1328.00
2023-04-28T17:42:26.602Z,1024.00
2023-04-28T17:43:26.763Z,936.00
2023-04-28T17:44:26.586Z,756.00
2023-04-28T17:45:26.550Z,608.00
2023-04-28T17:46:26.665Z,672.00
2023-04-28T17:47:26.527Z,604.00
2023-04-28T17:48:26.512Z,536.00
2023-04-28T17:49:26.503Z,656.00
2023-04-28T17:50:26.496Z,724.00
2023-04-28T17:51:26.444Z,656.00
2023-04-28T17:52:26.449Z,672.00
2023-04-28T17:53:26.668Z,616.00
2023-04-28T17:54:26.396Z,592.00
2023-04-28T17:55:26.405Z,624.00
2023-04-28T17:56:26.385Z,560.00
2023-04-28T17:57:26.406Z,496.00
2023-04-28T17:58:26.380Z,528.00
2023-04-28T17:59:26.396Z,516.00
2023-04-28T18:00:26.335Z,548.00
2023-04-28T18:01:26.422Z,548.00
2023-04-28T18:02:26.437Z,588.00
2023-04-28T18:03:26.460Z,612.00
2023-04-28T18:04:26.405Z,556.00
2023-04-28T18:05:26.290Z,604.00
2023-04-28T18:06:26.252Z,532.00
2023-04-28T18:07:26.304Z,504.00
2023-04-28T18:08:26.271Z,472.00
2023-04-28T18:09:26.276Z,428.00
2023-04-28T18:10:26.220Z,448.00
2023-04-28T18:11:26.224Z,488.00
2023-04-28T18:12:26.267Z,448.00
2023-04-28T18:13:26.211Z,388.00
2023-04-28T18:14:26.195Z,348.00
2023-04-28T18:15:26.224Z,340.00
2023-04-28T18:16:26.165Z,360.00
2023-04-28T18:17:26.400Z,316.00
2023-04-28T18:18:27.926Z,288.00
2023-04-28T18:19:26.154Z,248.00
2023-04-28T18:20:26.161Z,200.00
2023-04-28T18:21:26.161Z,188.00
2023-04-28T18:22:26.088Z,188.00